createdAt,value
2023-01-02T00:00:21.370Z,49.00
2023-01-02T00:02:50.204Z,49.55
2023-01-02T00:05:16.808Z,50.33
2023-01-02T00:07:43.471Z,49.60
2023-01-02T00:10:10.065Z,50.53
2023-01-02T00:12:36.434Z,48.88
2023-01-02T00:15:03.517Z,46.78
2023-01-02T00:17:29.898Z,48.70
2023-01-02T00:19:56.480Z,46.35
2023-01-02T00:22:22.962Z,45.90
2023-01-02T00:24:49.681Z,45.88
2023-01-02T00:27:16.054Z,44.78
2023-01-02T00:29:42.946Z,45.58
2023-01-02T00:32:09.288Z,44.75
2023-01-02T00:34:35.795Z,43.03
2023-01-02T00:37:02.206Z,43.25
2023-01-02T00:39:29.553Z,41.72
2023-01-02T00:41:56.055Z,42.17
2023-01-02T00:44:22.987Z,41.58
2023-01-02T00:46:49.787Z,40.65
2023-01-02T00:49:16.136Z,40.72
2023-01-02T00:51:42.608Z,40.28
2023-01-02T00:54:09.006Z,39.40
2023-01-02T00:56:35.595Z,38.35
2023-01-02T00:59:02.111Z,38.70
2023-01-02T01:01:28.641Z,37.35
2023-01-02T01:03:55.168Z,38.03
2023-01-02T01:06:22.044Z,36.85
2023-01-02T01:08:48.467Z,37.58
2023-01-02T01:11:15.418Z,35.08
2023-01-02T01:13:41.952Z,36.85
2023-01-02T01:16:08.809Z,35.70
2023-01-02T01:18:36.168Z,35.92
2023-01-02T01:21:02.684Z,34.75
2023-01-02T01:23:29.317Z,35.78
2023-01-02T01:25:55.668Z,33.33
2023-01-02T01:28:22.235Z,34.13
2023-01-02T01:30:48.775Z,32.95
2023-01-02T01:33:15.491Z,33.50
2023-01-02T01:35:42.107Z,32.92
2023-01-02T01:38:09.203Z,31.08
2023-01-02T01:40:35.699Z,31.25
2023-01-02T01:43:02.655Z,30.63
2023-01-02T01:45:29.503Z,31.13
2023-01-02T01:47:56.027Z,29.17
2023-01-02T01:50:23.018Z,30.40
2023-01-02T01:52:49.367Z,29.90
2023-01-02T01:55:15.708Z,29.10
2023-01-02T01:57:42.586Z,28.08
2023-01-02T02:00:09.119Z,28.50
2023-01-02T02:02:36.831Z,27.80
2023-01-02T02:05:03.464Z,29.13
2023-01-02T02:07:30.683Z,27.77
2023-01-02T02:09:57.562Z,27.27
2023-01-02T02:12:28.156Z,26.65
2023-01-02T02:14:55.036Z,26.65
2023-01-02T02:17:21.689Z,28.20
2023-01-02T02:19:48.301Z,26.60
2023-01-02T02:22:14.962Z,27.02
2023-01-02T02:24:41.564Z,25.08
2023-01-02T02:27:08.154Z,24.27
2023-01-02T02:29:34.562Z,26.60
2023-01-02T02:32:01.213Z,24.77
2023-01-02T02:34:27.820Z,24.95
2023-01-02T02:36:54.232Z,25.08
2023-01-02T02:39:20.873Z,23.80
2023-01-02T02:41:47.651Z,24.80
2023-01-02T02:44:14.719Z,24.35
2023-01-02T02:51:58.341Z,21.83
2023-01-02T02:54:24.957Z,22.65
2023-01-02T02:56:51.654Z,21.63
2023-01-02T02:59:18.219Z,22.13
2023-01-02T03:01:44.695Z,22.02
2023-01-02T03:04:11.394Z,22.63
2023-01-02T03:06:37.709Z,29.33
2023-01-02T03:09:04.642Z,22.52
2023-01-02T03:11:31.028Z,20.23
2023-01-02T03:13:57.827Z,19.85
2023-01-02T03:16:24.770Z,21.05
2023-01-02T03:18:51.788Z,21.52
2023-01-02T03:21:18.497Z,19.77
2023-01-02T03:23:45.385Z,22.48
2023-01-02T03:26:12.065Z,20.17
2023-01-02T03:28:38.585Z,19.48
2023-01-02T03:31:05.857Z,17.88
2023-01-02T03:33:32.803Z,18.85
2023-01-02T03:35:59.724Z,20.33
2023-01-02T03:38:26.302Z,18.25
2023-01-02T03:40:53.635Z,19.33
2023-01-02T03:43:20.598Z,19.40
2023-01-02T03:45:47.810Z,18.98
2023-01-02T03:48:14.538Z,18.40
2023-01-02T03:50:40.858Z,19.20
2023-01-02T03:53:07.234Z,18.50
2023-01-02T03:55:33.725Z,18.08
2023-01-02T03:58:01.209Z,17.77
2023-01-02T04:00:27.536Z,16.60
2023-01-02T04:02:54.302Z,18.95
2023-01-02T04:05:20.818Z,17.55
2023-01-02T04:07:47.544Z,17.67
2023-01-02T04:10:14.228Z,17.00
2023-01-02T04:12:40.941Z,16.48
2023-01-02T04:15:07.615Z,17.48
2023-01-02T04:17:33.996Z,15.52
2023-01-02T04:20:00.529Z,17.00
2023-01-02T04:22:27.637Z,16.55
2023-01-02T04:24:54.476Z,17.17
2023-01-02T04:27:21.274Z,17.08
2023-01-02T04:29:47.803Z,15.52
2023-01-02T04:32:14.525Z,16.73
2023-01-02T04:34:40.833Z,16.98
2023-01-02T04:37:07.523Z,15.57
2023-01-02T04:39:34.067Z,15.90
2023-01-02T04:42:00.842Z,15.90
2023-01-02T04:44:27.959Z,16.70
2023-01-02T04:46:54.446Z,15.20
2023-01-02T04:49:21.114Z,14.25
2023-01-02T04:51:47.564Z,15.40
2023-01-02T04:54:14.088Z,16.50
2023-01-02T04:56:40.829Z,14.73
2023-01-02T04:59:08.346Z,15.02
2023-01-02T05:01:35.309Z,14.00
2023-01-02T05:04:01.808Z,14.57
2023-01-02T05:06:28.468Z,15.55
2023-01-02T05:08:54.784Z,14.18
2023-01-02T05:11:21.159Z,16.27
2023-01-02T05:13:47.918Z,15.57
2023-01-02T05:16:14.327Z,14.20
2023-01-02T05:18:41.084Z,13.73
2023-01-02T05:21:07.669Z,13.75
2023-01-02T05:23:34.180Z,14.23
2023-01-02T05:26:00.877Z,13.77
2023-01-02T05:28:27.437Z,14.63
2023-01-02T05:30:53.801Z,15.30
2023-01-02T05:33:20.146Z,13.60
2023-01-02T05:35:46.791Z,14.38
2023-01-02T05:38:13.719Z,13.10
2023-01-02T05:40:40.049Z,14.45
2023-01-02T05:43:06.706Z,13.43
2023-01-02T05:45:33.495Z,14.20
2023-01-02T05:48:00.482Z,13.05
2023-01-02T05:50:27.172Z,14.38
2023-01-02T05:52:54.065Z,13.95
2023-01-02T05:55:20.564Z,14.90
2023-01-02T05:57:47.357Z,14.07
2023-01-02T06:00:13.762Z,12.07
2023-01-02T06:02:47.062Z,12.52
2023-01-02T06:05:14.632Z,12.07
2023-01-02T06:07:41.207Z,13.80
2023-01-02T06:10:07.805Z,12.85
2023-01-02T06:12:34.124Z,12.45
2023-01-02T06:15:00.531Z,13.38
2023-01-02T06:17:27.719Z,13.00
2023-01-02T06:19:54.413Z,12.35
2023-01-02T06:22:21.020Z,11.90
2023-01-02T06:24:47.939Z,12.52
2023-01-02T06:27:14.721Z,12.05
2023-01-02T06:29:41.090Z,13.93
2023-01-02T06:32:07.988Z,12.18
2023-01-02T06:34:34.583Z,11.00
2023-01-02T06:37:04.581Z,10.63
2023-01-02T06:39:35.940Z,13.30
2023-01-02T06:42:02.575Z,12.43
2023-01-02T06:44:29.191Z,11.75
2023-01-02T06:46:55.940Z,10.98
2023-01-02T06:49:22.679Z,12.77
2023-01-02T06:51:49.413Z,11.00
2023-01-02T06:54:15.947Z,10.90
2023-01-02T06:56:42.391Z,12.32
2023-01-02T06:59:09.188Z,11.68
2023-01-02T07:01:35.624Z,11.25
2023-01-02T07:04:01.964Z,11.00
2023-01-02T07:06:28.706Z,10.45
2023-01-02T07:08:55.255Z,11.48
2023-01-02T07:11:21.561Z,10.48
2023-01-02T07:13:47.994Z,13.68
2023-01-02T07:16:14.821Z,10.98
2023-01-02T07:18:41.238Z,12.25
2023-01-02T07:21:07.903Z,10.43
2023-01-02T07:23:34.527Z,11.63
2023-01-02T07:26:01.146Z,11.68
2023-01-02T07:28:27.795Z,10.77
2023-01-02T07:30:55.033Z,11.00
2023-01-02T07:33:21.526Z,11.38
2023-01-02T07:35:47.874Z,11.50
2023-01-02T07:38:14.489Z,10.35
2023-01-02T07:40:41.269Z,9.93
2023-01-02T07:43:07.953Z,11.43
2023-01-02T07:45:34.294Z,11.27
2023-01-02T07:48:00.889Z,9.55
2023-01-02T07:50:27.778Z,9.75
2023-01-02T07:52:54.338Z,10.35
2023-01-02T07:55:21.169Z,11.07
2023-01-02T07:57:47.575Z,10.57
2023-01-02T08:00:13.954Z,9.55
2023-01-02T08:02:40.659Z,11.73
2023-01-02T08:05:07.820Z,11.25
2023-01-02T08:07:36.982Z,10.35
2023-01-02T08:10:07.439Z,10.13
2023-01-02T08:12:34.480Z,11.15
2023-01-02T08:15:01.040Z,10.13
2023-01-02T08:17:28.011Z,10.77
2023-01-02T08:19:54.868Z,10.88
2023-01-02T08:22:21.467Z,10.95
2023-01-02T08:24:47.879Z,11.40
2023-01-02T08:27:14.426Z,10.15
2023-01-02T08:29:41.828Z,9.73
2023-01-02T08:32:08.847Z,10.88
2023-01-02T08:34:35.497Z,9.38
2023-01-02T08:37:01.921Z,11.52
2023-01-02T08:39:28.284Z,9.77
2023-01-02T08:41:54.625Z,10.52
2023-01-02T08:44:20.970Z,9.45
2023-01-02T08:46:47.829Z,10.73
2023-01-02T08:49:14.627Z,9.75
2023-01-02T08:51:41.514Z,13.93
2023-01-02T08:54:08.439Z,10.05
2023-01-02T08:56:35.330Z,10.13
2023-01-02T08:59:01.685Z,9.82
2023-01-02T09:01:28.257Z,9.38
2023-01-02T09:03:55.183Z,10.25
2023-01-02T09:06:22.648Z,11.70
2023-01-02T09:08:49.589Z,14.73
2023-01-02T09:11:16.532Z,10.70
2023-01-02T09:13:43.317Z,15.05
2023-01-02T09:16:10.421Z,19.80
2023-01-02T09:18:37.202Z,23.00
2023-01-02T09:21:03.979Z,17.13
2023-01-02T09:23:30.773Z,18.17
2023-01-02T09:25:57.318Z,18.33
2023-01-02T09:28:24.200Z,52.58
2023-01-02T09:30:50.538Z,413.65
2023-01-02T09:33:17.917Z,435.00
2023-01-02T09:35:44.582Z,275.90
2023-01-02T09:38:11.256Z,246.40
2023-01-02T09:40:37.723Z,207.95
2023-01-02T09:43:04.255Z,196.13
2023-01-02T09:45:33.878Z,177.15
2023-01-02T09:48:00.814Z,206.43
2023-01-02T09:50:27.697Z,286.63
2023-01-02T09:52:54.254Z,284.25
2023-01-02T09:55:20.854Z,271.15
2023-01-02T09:57:47.644Z,249.20
2023-01-02T10:00:14.217Z,241.75
2023-01-02T10:02:41.225Z,223.07
2023-01-02T10:05:07.843Z,208.15
2023-01-02T10:07:34.437Z,209.10
2023-01-02T10:10:01.054Z,182.55
2023-01-02T10:12:28.121Z,178.52
2023-01-02T10:14:54.551Z,163.75
2023-01-02T10:17:21.268Z,162.43
2023-01-02T10:19:47.708Z,150.70
2023-01-02T10:22:14.601Z,149.00
2023-01-02T10:24:41.022Z,232.73
2023-01-02T10:27:07.895Z,282.48
2023-01-02T10:29:34.498Z,260.48
2023-01-02T10:32:01.074Z,247.68
2023-01-02T10:34:27.687Z,227.18
2023-01-02T10:36:54.075Z,216.90
2023-01-02T10:39:20.459Z,201.80
2023-01-02T10:41:47.533Z,191.25
2023-01-02T10:44:14.246Z,181.27
2023-01-02T10:46:40.983Z,174.52
2023-01-02T10:49:07.837Z,165.05
2023-01-02T10:51:34.316Z,157.85
2023-01-02T10:54:00.727Z,149.38
2023-01-02T10:56:27.555Z,215.45
2023-01-02T10:58:54.223Z,258.42
2023-01-02T11:01:21.044Z,310.00
2023-01-02T11:03:47.658Z,265.50
2023-01-02T11:06:26.179Z,260.60
2023-01-02T11:08:53.771Z,232.07
2023-01-02T11:11:20.327Z,200.52
2023-01-02T11:13:53.603Z,189.18
2023-01-02T11:16:20.675Z,296.98
2023-01-02T11:18:47.451Z,392.60
2023-01-02T11:21:15.231Z,498.25
2023-01-02T11:23:41.639Z,557.60
2023-01-02T11:26:08.033Z,621.45
2023-01-02T11:28:34.617Z,724.80
2023-01-02T11:31:00.956Z,805.05
2023-01-02T11:33:27.517Z,895.83
2023-01-02T11:35:54.044Z,935.88
2023-01-02T11:38:30.175Z,973.53
2023-01-02T11:40:57.279Z,1007.30
2023-01-02T11:43:23.544Z,1061.75
2023-01-02T11:45:50.324Z,1098.85
2023-01-02T11:48:16.726Z,1098.55
2023-01-02T11:50:43.701Z,1084.45
2023-01-02T11:53:10.578Z,1041.93
2023-01-02T11:55:37.273Z,1047.07
2023-01-02T11:58:04.094Z,1089.25
2023-01-02T12:00:30.376Z,1108.22
2023-01-02T12:02:57.730Z,1183.63
2023-01-02T12:05:24.283Z,1233.05
2023-01-02T12:07:50.650Z,1249.22
2023-01-02T12:10:17.263Z,1210.25
2023-01-02T12:12:44.488Z,1275.25
2023-01-02T12:15:11.113Z,1298.53
2023-01-02T12:17:38.051Z,1236.75
2023-01-02T12:20:05.902Z,1196.00
2023-01-02T12:22:32.981Z,1151.97
2023-01-02T12:24:59.365Z,1164.28
2023-01-02T12:27:25.903Z,1249.47
2023-01-02T12:29:52.380Z,1178.55
2023-01-02T12:32:19.001Z,575.83
2023-01-02T12:34:45.370Z,473.42
2023-01-02T12:37:11.982Z,356.60
2023-01-02T12:39:38.451Z,312.95
2023-01-02T12:42:05.026Z,373.77
2023-01-02T12:44:33.771Z,291.10
2023-01-02T12:47:00.993Z,277.02
2023-01-02T12:49:27.411Z,261.02
2023-01-02T12:51:53.771Z,231.35
2023-01-02T12:54:21.196Z,327.40
2023-01-02T12:56:47.805Z,226.88
2023-01-02T12:59:14.473Z,160.02
2023-01-02T13:01:41.410Z,81.40
2023-01-02T13:04:08.565Z,63.95
2023-01-02T13:06:44.025Z,43.92
2023-01-02T13:09:15.716Z,35.90
2023-01-02T13:11:48.210Z,34.17
2023-01-02T13:14:14.768Z,29.95
2023-01-02T13:16:41.975Z,23.15
2023-01-02T13:19:08.491Z,23.35
2023-01-02T13:21:34.872Z,14.23
2023-01-02T13:24:02.380Z,14.93
2023-01-02T13:26:29.270Z,14.90
2023-01-02T13:28:55.788Z,15.95
2023-01-02T13:34:08.775Z,31.63
2023-01-02T13:36:35.496Z,55.03
2023-01-02T13:39:02.142Z,43.08
2023-01-02T13:41:29.139Z,48.03
2023-01-02T13:43:55.656Z,113.28
2023-01-02T13:47:01.005Z,109.93
2023-01-02T13:49:08.623Z,96.65
2023-01-02T13:51:35.162Z,71.28
2023-01-02T13:54:01.515Z,77.25
2023-01-02T13:56:27.914Z,76.20
2023-01-02T13:58:54.533Z,117.57
2023-01-02T14:01:20.987Z,96.97
2023-01-02T14:03:47.385Z,55.45
2023-01-02T14:06:14.105Z,56.50
2023-01-02T14:08:40.534Z,79.90
2023-01-02T14:11:07.376Z,85.57
2023-01-02T14:13:33.787Z,80.65
2023-01-02T14:16:01.124Z,75.03
2023-01-02T14:18:30.638Z,72.35
2023-01-02T14:20:57.224Z,68.90
2023-01-02T14:23:24.392Z,68.50
2023-01-02T14:25:51.232Z,68.35
2023-01-02T14:28:18.174Z,67.80
2023-01-02T14:30:45.226Z,62.50
2023-01-02T14:33:11.701Z,64.25
2023-01-02T14:35:38.781Z,62.40
2023-01-02T14:38:10.604Z,57.88
2023-01-02T14:40:39.811Z,61.90
2023-01-02T14:43:06.404Z,58.55
2023-01-02T14:45:32.871Z,63.42
2023-01-02T14:47:59.448Z,60.60
2023-01-02T14:50:25.773Z,55.55
2023-01-02T14:52:52.587Z,56.50
2023-01-02T14:55:19.047Z,59.63
2023-01-02T14:57:45.981Z,52.83
2023-01-02T15:00:12.244Z,53.80
2023-01-02T15:02:38.978Z,53.13
2023-01-02T15:05:05.695Z,56.05
2023-01-02T15:07:32.565Z,54.35
2023-01-02T15:09:59.609Z,49.80
2023-01-02T15:12:26.571Z,53.15
2023-01-02T15:14:52.938Z,48.65
2023-01-02T15:17:19.463Z,49.63
2023-01-02T15:19:46.649Z,47.05
2023-01-02T15:22:13.647Z,49.03
2023-01-02T15:24:40.397Z,65.03
2023-01-02T15:27:07.083Z,203.95
2023-01-02T15:29:33.835Z,301.17
2023-01-02T15:32:00.282Z,302.48
2023-01-02T15:34:27.627Z,257.55
2023-01-02T15:36:54.459Z,243.45
2023-01-02T15:39:20.929Z,220.55
2023-01-02T15:41:48.192Z,217.93
2023-01-02T15:44:15.043Z,152.35
2023-01-02T15:46:41.499Z,183.27
2023-01-02T15:49:08.029Z,170.45
2023-01-02T15:51:40.010Z,169.65
2023-01-02T15:54:07.978Z,158.68
2023-01-02T15:56:34.571Z,151.65
2023-01-02T15:59:00.923Z,149.52
2023-01-02T16:01:27.748Z,147.38
2023-01-02T16:04:01.712Z,141.95
2023-01-02T16:06:30.142Z,175.20
2023-01-02T16:08:56.508Z,426.48
2023-01-02T16:11:23.323Z,446.23
2023-01-02T16:13:50.057Z,395.63
2023-01-02T16:16:17.211Z,377.30
2023-01-02T16:18:44.184Z,353.45
2023-01-02T16:21:10.622Z,331.65
2023-01-02T16:23:37.469Z,321.13
2023-01-02T16:26:04.615Z,311.42
2023-01-02T16:28:35.464Z,300.88
2023-01-02T16:31:03.705Z,286.40
2023-01-02T16:33:31.003Z,279.65
2023-01-02T16:36:00.957Z,383.17
2023-01-02T16:41:01.024Z,481.83
2023-01-02T16:43:29.035Z,447.67
2023-01-02T16:45:56.121Z,394.70
2023-01-02T16:48:22.874Z,402.40
2023-01-02T16:50:49.969Z,380.40
2023-01-02T16:53:16.985Z,374.10
2023-01-02T16:55:43.496Z,361.95
2023-01-02T16:58:09.959Z,350.23
2023-01-02T17:00:42.947Z,339.58
2023-01-02T17:03:09.888Z,330.83
2023-01-02T17:05:36.266Z,322.00
2023-01-02T17:08:03.236Z,317.52
2023-01-02T17:10:29.926Z,306.65
2023-01-02T17:12:57.407Z,301.45
2023-01-02T17:15:24.147Z,296.75
2023-01-02T17:17:51.820Z,293.80
2023-01-02T17:20:19.337Z,279.67
2023-01-02T17:22:46.786Z,273.83
2023-01-02T17:25:13.156Z,268.70
2023-01-02T17:27:40.296Z,266.73
2023-01-02T17:30:07.376Z,259.80
2023-01-02T17:32:33.839Z,250.32
2023-01-02T17:35:00.355Z,246.75
2023-01-02T17:37:27.393Z,239.95
2023-01-02T17:39:53.781Z,234.15
2023-01-02T17:42:20.672Z,235.38
2023-01-02T17:44:47.287Z,230.32
2023-01-02T17:50:00.159Z,214.55
2023-01-02T17:52:27.431Z,208.68
2023-01-02T17:54:56.754Z,207.25
2023-01-02T17:57:23.880Z,204.85
2023-01-02T17:59:50.411Z,196.30
2023-01-02T18:02:16.822Z,193.10
2023-01-02T18:04:43.173Z,187.32
2023-01-02T18:07:09.521Z,183.05
2023-01-02T18:09:36.300Z,179.18
2023-01-02T18:12:02.622Z,178.30
2023-01-02T18:14:29.201Z,172.82
2023-01-02T18:16:56.413Z,167.43
2023-01-02T18:19:23.368Z,167.00
2023-01-02T18:21:49.756Z,159.98
2023-01-02T18:24:16.419Z,162.90
2023-01-02T18:26:42.932Z,161.15
2023-01-02T18:29:10.274Z,150.52
2023-01-02T18:31:37.407Z,150.70
2023-01-02T18:34:03.884Z,148.93
2023-01-02T18:36:30.760Z,144.65
2023-01-02T18:38:57.337Z,145.88
2023-01-02T18:41:23.944Z,143.20
2023-01-02T18:43:50.629Z,136.10
2023-01-02T18:46:17.829Z,138.88
2023-01-02T18:48:44.217Z,133.48
2023-01-02T18:51:10.834Z,131.73
2023-01-02T18:53:38.068Z,130.43
2023-01-02T18:56:04.916Z,128.18
2023-01-02T18:58:31.611Z,124.97
2023-01-02T19:00:58.064Z,122.22
2023-01-02T19:03:24.781Z,119.50
2023-01-02T19:05:52.403Z,120.75
2023-01-02T19:08:19.160Z,117.22
2023-01-02T19:10:46.283Z,116.03
2023-01-02T19:13:12.870Z,112.93
2023-01-02T19:15:39.487Z,113.32
2023-01-02T19:18:05.999Z,109.35
2023-01-02T19:20:32.963Z,105.72
2023-01-02T19:22:59.493Z,107.10
2023-01-02T19:25:25.967Z,102.90
2023-01-02T19:27:52.594Z,100.82
2023-01-02T19:30:20.936Z,101.88
2023-01-02T19:32:47.602Z,99.75
2023-01-02T19:35:14.060Z,99.35
2023-01-02T19:37:40.854Z,96.50
2023-01-02T19:40:08.815Z,96.47
2023-01-02T19:42:37.376Z,94.90
2023-01-02T19:45:04.452Z,93.22
2023-01-02T19:47:31.378Z,92.65
2023-01-02T19:49:57.890Z,91.60
2023-01-02T19:52:24.779Z,92.25
2023-01-02T19:54:51.591Z,91.63
2023-01-02T19:57:18.386Z,85.25
2023-01-02T19:59:44.986Z,86.78
2023-01-02T20:02:11.576Z,83.45
2023-01-02T20:04:38.456Z,84.35
2023-01-02T20:07:04.897Z,81.93
2023-01-02T20:09:31.548Z,83.03
2023-01-02T20:12:01.333Z,76.70
2023-01-02T20:14:32.016Z,79.00
2023-01-02T20:16:59.033Z,75.80
2023-01-02T20:19:25.962Z,75.93
2023-01-02T20:21:52.367Z,76.10
2023-01-02T20:24:18.819Z,75.85
2023-01-02T20:26:45.474Z,75.15
2023-01-02T20:29:11.934Z,72.55
2023-01-02T20:31:39.071Z,71.68
2023-01-02T20:34:05.490Z,72.25
2023-01-02T20:36:32.364Z,70.53
2023-01-02T20:38:58.787Z,67.38
2023-01-02T20:41:25.366Z,69.93
2023-01-02T20:43:52.168Z,67.07
2023-01-02T20:46:19.023Z,64.95
2023-01-02T20:48:45.638Z,66.50
2023-01-02T20:51:12.139Z,61.72
2023-01-02T20:53:38.878Z,63.60
2023-01-02T20:56:05.211Z,64.05
2023-01-02T20:58:32.044Z,60.58
2023-01-02T21:00:58.484Z,61.33
2023-01-02T21:03:25.424Z,60.38
2023-01-02T21:05:52.172Z,57.85
2023-01-02T21:08:19.178Z,58.15
2023-01-02T21:10:45.847Z,57.85
2023-01-02T21:13:12.699Z,56.35
2023-01-02T21:15:39.464Z,58.15
2023-01-02T21:18:05.949Z,57.03
2023-01-02T21:20:32.669Z,56.13
2023-01-02T21:22:59.630Z,56.88
2023-01-02T21:25:26.136Z,55.58
2023-01-02T21:27:53.207Z,53.97
2023-01-02T21:30:19.485Z,52.45
2023-01-02T21:32:46.335Z,53.45
2023-01-02T21:35:13.093Z,49.95
2023-01-02T21:37:39.446Z,51.40
2023-01-02T21:40:05.777Z,51.78
2023-01-02T21:42:32.310Z,50.35
2023-01-02T21:44:59.357Z,46.63
2023-01-02T21:47:25.819Z,49.20
2023-01-02T21:49:52.217Z,45.90
2023-01-02T21:52:18.856Z,47.90
2023-01-02T21:54:45.167Z,47.13
2023-01-02T21:57:11.615Z,47.13
2023-01-02T21:59:38.288Z,44.83
2023-01-02T22:02:05.029Z,45.42
2023-01-02T22:04:31.852Z,45.10
2023-01-02T22:09:45.394Z,42.50
2023-01-02T22:12:12.063Z,42.95
2023-01-02T22:14:39.163Z,40.25
2023-01-02T22:17:06.006Z,42.38
2023-01-02T22:19:32.542Z,40.67
2023-01-02T22:21:59.233Z,41.75
2023-01-02T22:24:25.990Z,37.97
2023-01-02T22:26:52.635Z,39.83
2023-01-02T22:29:19.798Z,39.42
2023-01-02T22:31:46.268Z,37.67
2023-01-02T22:34:13.894Z,37.53
2023-01-02T22:36:40.474Z,37.75
2023-01-02T22:39:27.746Z,36.85
2023-01-02T22:41:53.949Z,35.13
2023-01-02T22:44:20.382Z,38.25
2023-01-02T22:46:47.304Z,34.22
2023-01-02T22:49:14.055Z,36.10
2023-01-02T22:52:05.944Z,33.72
2023-01-02T22:54:27.058Z,33.80
2023-01-02T22:56:53.806Z,34.40
2023-01-02T22:59:20.714Z,35.30
2023-01-02T23:01:47.289Z,32.55
2023-01-02T23:04:14.227Z,33.25
2023-01-02T23:07:05.199Z,30.75
2023-01-02T23:09:27.124Z,30.73
2023-01-02T23:11:53.748Z,32.90
2023-01-02T23:14:20.530Z,31.30
2023-01-02T23:16:47.383Z,30.25
2023-01-02T23:19:14.346Z,28.77
2023-01-02T23:21:41.337Z,30.70
2023-01-02T23:24:07.879Z,27.10
2023-01-02T23:26:34.438Z,28.85
2023-01-02T23:29:09.057Z,27.70
2023-01-02T23:31:35.947Z,25.38
2023-01-02T23:34:02.529Z,26.92
2023-01-02T23:36:29.212Z,26.75
2023-01-02T23:38:55.651Z,27.08
2023-01-02T23:41:22.184Z,26.15
2023-01-02T23:43:48.735Z,25.48
2023-01-02T23:46:15.183Z,24.70
2023-01-02T23:48:41.664Z,25.02
2023-01-02T23:51:08.013Z,25.30
2023-01-02T23:53:34.479Z,25.83
2023-01-02T23:56:01.095Z,23.80
2023-01-02T23:58:27.707Z,23.13
